BCDO2: Kiamichi River, Big Cedar

Data processed at Wed May 22 2019 23:50


All information presented herein is the property of the government of the United States of America and may be revised or deleted at any time without prior notice.
Dissemination of this information without the expressed written consent of the Public Affairs Office, Tulsa District U.S. Army Corps of Engineers is strictly prohibited.
These data are gathered electronically and, as presented, have not undergone any form of quality control. These data are not guaranteed to be valid or correct.
Go to home page.
Go to station list.
Go to home page.

Downstream station:


Previous Day
Next Day
Current Day
    
SHEF ID:       BCDO2     Kiamichi River near Big Cedar, O
STATION TYPE:  
Regulating: Stage =     9.00, Flow =     2150

               PRECIP     STAGE  RIV-FLOW  WTR-TEMP  BAT-LOAD
                   in        ft       cfs         F      volt
              Ccp-Rev   Ccp-Rev   Ccp-Rev   Ccp-Rev   Ccp-Rev
(US/Central)
05/22 00:00      ----      4.54       191     65.35     12.57
05/22 01:00      ----      4.49       181     64.92     12.57
05/22 02:00      ----      4.46       175     64.51     12.57
05/22 03:00      ----      4.42       168     64.11     12.57
05/22 04:00      ----      4.40       164     63.77     12.57
05/22 05:00      ----      4.37       158     63.46     12.49
05/22 06:00      ----      4.36       156     63.21     12.49
05/22 07:00      ----      4.34       152     63.09     12.49
05/22 08:00      ----      4.32       149     63.03     12.49
05/22 09:00      ----      4.31       147     63.19     12.73
05/22 10:00      ----      4.29       143     63.46     13.29
05/22 11:00      ----      4.28       142     63.88     13.21
05/22 12:00      ----      4.25       136     64.54     13.21
05/22 13:00      ----      4.25       136     65.26     13.05
05/22 14:00      ----      4.24       134     66.16     13.05
05/22 15:00      ----      4.20       127     66.94     13.05
05/22 16:00      ----      4.21       129     67.80     12.97
05/22 17:00      ----      4.19       126     68.32     12.97
05/22 18:00      ----      4.19       126     68.52     12.97
05/22 19:00      ----      4.17       122     68.61     12.97
05/22 20:00      ----      4.16       121     68.56     12.89
05/22 21:00      ----      4.11       112     68.41     12.73
05/22 22:00      ----      4.12       114     68.36     12.65
05/22 23:00      ----      4.14       117     68.27     12.65